Alexis Creek, Canada
Current Conditions -  °F | °C
As of 3:14 AM on Friday 31 Oct 2014 (Local Time) from CYWL Reporting Station
Overcast Overcast  
Wind Chill: 44°   Ceiling: 4000
Heat Index: 46°   Visibility: 15mi
Dew Point: 43°   Wind: 6mph
Humidity: 87%   Direction: 140°SE
Pressure: 29.65"   Gusts: NA
Location:  52.08°N, 123.28°W
Report Text: CYWL 311014Z 14005KT 15SM FEW010 BKN040 OVC090 08/06 A2965 RMK SF1SC5AC3 SF TR SLP054 DENSITY ALT 3200FT
Loading
Personal Weather Stations






























Interactive Weather Map
Tropical Storm Tracking
New forecast layout! Learn more

10-Day Weather Forecast

Advertisements
Track Severe Weather on mobile